createdAt,value
2016-10-22T00:00:31.587Z,180.00
2016-10-22T00:01:32.102Z,247.50
2016-10-22T00:02:32.613Z,202.50
2016-10-22T00:03:33.155Z,202.50
2016-10-22T00:04:33.670Z,337.50
2016-10-22T00:05:34.190Z,157.50
2016-10-22T00:06:34.679Z,225.00
2016-10-22T00:07:35.196Z,157.50
2016-10-22T00:08:35.711Z,135.00
2016-10-22T00:09:36.231Z,157.50
2016-10-22T00:10:36.777Z,180.00
2016-10-22T00:11:37.289Z,157.50
2016-10-22T00:12:37.809Z,180.00
2016-10-22T00:13:38.318Z,157.50
2016-10-22T00:14:38.829Z,225.00
2016-10-22T00:15:39.320Z,180.00
2016-10-22T00:16:39.852Z,180.00
2016-10-22T00:17:40.378Z,157.50
2016-10-22T00:18:40.890Z,180.00
2016-10-22T00:19:41.415Z,180.00
2016-10-22T00:20:41.917Z,157.50
2016-10-22T00:21:42.409Z,180.00
2016-10-22T00:22:43.072Z,247.50
2016-10-22T00:23:43.442Z,180.00
2016-10-22T00:24:44.098Z,157.50
2016-10-22T00:25:44.491Z,157.50
2016-10-22T00:26:44.985Z,202.50
2016-10-22T00:27:45.499Z,180.00
2016-10-22T00:28:46.161Z,157.50
2016-10-22T00:29:46.553Z,180.00
2016-10-22T00:30:47.043Z,157.50
2016-10-22T00:31:47.575Z,202.50
2016-10-22T00:32:48.216Z,202.50
2016-10-22T00:33:48.611Z,225.00
2016-10-22T00:34:49.248Z,180.00
2016-10-22T00:35:49.614Z,157.50
2016-10-22T00:36:50.278Z,180.00
2016-10-22T00:37:50.671Z,202.50
2016-10-22T00:38:51.160Z,180.00
2016-10-22T00:39:51.698Z,225.00
2016-10-22T00:40:52.331Z,180.00
2016-10-22T00:41:52.727Z,180.00
2016-10-22T00:42:53.213Z,202.50
2016-10-22T00:43:53.751Z,180.00
2016-10-22T00:44:54.279Z,180.00
2016-10-22T00:45:54.763Z,180.00
2016-10-22T00:46:55.435Z,202.50
2016-10-22T00:47:55.808Z,337.50
2016-10-22T00:48:56.318Z,180.00
2016-10-22T00:49:56.837Z,247.50
2016-10-22T00:50:57.346Z,225.00
2016-10-22T00:51:57.893Z,337.50
2016-10-22T00:52:58.405Z,225.00
2016-10-22T00:53:58.887Z,225.00
2016-10-22T00:54:59.548Z,202.50
2016-10-22T00:55:59.948Z,202.50
2016-10-22T00:57:00.576Z,180.00
2016-10-22T00:58:00.945Z,202.50
2016-10-22T00:59:01.457Z,180.00
2016-10-22T01:00:02.003Z,180.00
2016-10-22T01:01:02.479Z,202.50
2016-10-22T01:02:02.992Z,180.00
2016-10-22T01:03:03.507Z,180.00
2016-10-22T01:04:04.046Z,225.00
2016-10-22T01:05:04.539Z,202.50
2016-10-22T01:06:05.073Z,180.00
2016-10-22T01:07:05.592Z,225.00
2016-10-22T01:08:06.074Z,157.50
2016-10-22T01:09:06.740Z,247.50
2016-10-22T01:10:07.131Z,180.00
2016-10-22T01:11:07.641Z,202.50
2016-10-22T01:12:08.131Z,225.00
2016-10-22T01:13:08.669Z,225.00
2016-10-22T01:14:09.306Z,157.50
2016-10-22T01:15:09.670Z,157.50
2016-10-22T01:16:10.209Z,180.00
2016-10-22T01:17:10.698Z,247.50
2016-10-22T01:18:11.212Z,180.00
2016-10-22T01:19:11.750Z,157.50
2016-10-22T01:20:12.238Z,202.50
2016-10-22T01:21:12.754Z,270.00
2016-10-22T01:22:13.266Z,180.00
2016-10-22T01:23:13.930Z,225.00
2016-10-22T01:24:14.324Z,202.50
2016-10-22T01:25:14.818Z,180.00
2016-10-22T01:26:15.360Z,157.50
2016-10-22T01:27:15.998Z,157.50
2016-10-22T01:28:16.370Z,157.50
2016-10-22T01:29:17.027Z,180.00
2016-10-22T01:30:17.424Z,157.50
2016-10-22T01:31:17.914Z,180.00
2016-10-22T01:32:18.456Z,337.50
2016-10-22T01:33:18.941Z,180.00
2016-10-22T01:34:19.455Z,202.50
2016-10-22T01:35:19.967Z,247.50
2016-10-22T01:36:20.633Z,202.50
2016-10-22T01:37:21.142Z,337.50
2016-10-22T01:38:21.506Z,180.00
2016-10-22T01:39:22.167Z,202.50
2016-10-22T01:40:22.564Z,180.00
2016-10-22T01:41:23.193Z,202.50
2016-10-22T01:42:23.587Z,202.50
2016-10-22T01:43:24.219Z,225.00
2016-10-22T01:44:24.604Z,337.50
2016-10-22T01:45:25.101Z,337.50
2016-10-22T01:46:25.646Z,202.50
2016-10-22T01:47:26.168Z,315.00
2016-10-22T01:48:26.654Z,247.50
2016-10-22T01:49:27.164Z,247.50
2016-10-22T01:50:27.680Z,247.50
2016-10-22T01:51:28.196Z,247.50
2016-10-22T01:52:28.707Z,202.50
2016-10-22T01:53:29.248Z,202.50
2016-10-22T01:54:29.765Z,180.00
2016-10-22T01:55:30.397Z,180.00
2016-10-22T01:56:30.795Z,180.00
2016-10-22T01:57:31.286Z,202.50
2016-10-22T01:58:31.819Z,202.50
2016-10-22T01:59:32.457Z,180.00
2016-10-22T02:00:32.820Z,225.00
2016-10-22T02:01:33.358Z,180.00
2016-10-22T02:02:33.889Z,225.00
2016-10-22T02:03:34.516Z,225.00
2016-10-22T02:04:34.910Z,225.00
2016-10-22T02:05:35.555Z,202.50
2016-10-22T02:06:35.929Z,337.50
2016-10-22T02:07:36.587Z,180.00
2016-10-22T02:08:36.988Z,180.00
2016-10-22T02:09:37.469Z,157.50
2016-10-22T02:10:37.981Z,180.00
2016-10-22T02:11:38.644Z,180.00
2016-10-22T02:12:39.011Z,180.00
2016-10-22T02:13:39.520Z,157.50
2016-10-22T02:14:40.050Z,180.00
2016-10-22T02:15:40.581Z,180.00
2016-10-22T02:16:41.098Z,225.00
2016-10-22T02:17:41.576Z,180.00
2016-10-22T02:18:42.238Z,202.50
2016-10-22T02:19:42.753Z,180.00
2016-10-22T02:20:43.121Z,202.50
2016-10-22T02:21:43.784Z,202.50
2016-10-22T02:22:44.149Z,180.00
2016-10-22T02:23:44.698Z,202.50
2016-10-22T02:24:45.183Z,180.00
2016-10-22T02:25:45.693Z,157.50
2016-10-22T02:26:46.207Z,202.50
2016-10-22T02:27:46.869Z,202.50
2016-10-22T02:28:47.259Z,180.00
2016-10-22T02:29:47.894Z,225.00
2016-10-22T02:30:48.299Z,157.50
2016-10-22T02:31:48.776Z,180.00
2016-10-22T02:32:49.326Z,202.50
2016-10-22T02:33:49.803Z,157.50
2016-10-22T02:34:50.342Z,202.50
2016-10-22T02:35:50.982Z,180.00
2016-10-22T02:36:51.371Z,202.50
2016-10-22T02:37:52.006Z,180.00
2016-10-22T02:38:52.377Z,202.50
2016-10-22T02:39:53.037Z,202.50
2016-10-22T02:40:53.407Z,247.50
2016-10-22T02:41:54.073Z,247.50
2016-10-22T02:42:54.441Z,270.00
2016-10-22T02:43:54.963Z,180.00
2016-10-22T02:44:55.509Z,180.00
2016-10-22T02:45:56.020Z,157.50
2016-10-22T02:46:56.674Z,202.50
2016-10-22T02:47:57.171Z,202.50
2016-10-22T02:48:57.565Z,202.50
2016-10-22T02:49:58.084Z,225.00
2016-10-22T02:50:58.595Z,202.50
2016-10-22T02:51:59.228Z,202.50
2016-10-22T02:52:59.619Z,225.00
2016-10-22T02:54:00.116Z,202.50
2016-10-22T02:55:00.769Z,225.00
2016-10-22T02:56:01.281Z,225.00
2016-10-22T02:57:01.672Z,225.00
2016-10-22T02:58:02.162Z,202.50
2016-10-22T02:59:02.709Z,247.50
2016-10-22T03:00:03.211Z,225.00
2016-10-22T03:01:03.736Z,247.50
2016-10-22T03:02:04.214Z,247.50
2016-10-22T03:03:04.752Z,202.50
2016-10-22T03:04:05.389Z,225.00
2016-10-22T03:05:05.785Z,180.00
2016-10-22T03:06:06.296Z,202.50
2016-10-22T03:07:06.783Z,157.50
2016-10-22T03:08:07.448Z,180.00
2016-10-22T03:09:07.846Z,180.00
2016-10-22T03:10:08.476Z,157.50
2016-10-22T03:11:08.841Z,180.00
2016-10-22T03:12:09.355Z,180.00
2016-10-22T03:13:09.898Z,180.00
2016-10-22T03:14:10.381Z,157.50
2016-10-22T03:15:10.938Z,157.50
2016-10-22T03:16:11.412Z,180.00
2016-10-22T03:17:11.928Z,202.50
2016-10-22T03:18:12.438Z,225.00
2016-10-22T03:19:12.951Z,180.00
2016-10-22T03:20:13.470Z,202.50
2016-10-22T03:21:14.136Z,180.00
2016-10-22T03:22:14.531Z,180.00
2016-10-22T03:23:15.049Z,180.00
2016-10-22T03:24:15.534Z,180.00
2016-10-22T03:25:16.047Z,157.50
2016-10-22T03:26:16.709Z,202.50
2016-10-22T03:27:17.110Z,180.00
2016-10-22T03:28:17.590Z,202.50
2016-10-22T03:29:18.131Z,202.50
2016-10-22T03:30:18.647Z,180.00
2016-10-22T03:31:19.169Z,337.50
2016-10-22T03:32:19.678Z,202.50
2016-10-22T03:33:20.161Z,135.00
2016-10-22T03:34:20.681Z,180.00
2016-10-22T03:35:21.187Z,270.00
2016-10-22T03:36:21.849Z,180.00
2016-10-22T03:37:22.254Z,247.50
2016-10-22T03:38:22.729Z,202.50
2016-10-22T03:39:23.243Z,180.00
2016-10-22T03:40:23.788Z,180.00
2016-10-22T03:41:24.273Z,202.50
2016-10-22T03:42:24.934Z,202.50
2016-10-22T03:43:25.325Z,247.50
2016-10-22T03:44:25.819Z,225.00
2016-10-22T03:45:26.334Z,225.00
2016-10-22T03:46:26.847Z,225.00
2016-10-22T03:47:27.388Z,180.00
2016-10-22T03:48:27.878Z,225.00
2016-10-22T03:49:28.390Z,247.50
2016-10-22T03:50:28.935Z,202.50
2016-10-22T03:51:29.445Z,157.50
2016-10-22T03:52:29.937Z,180.00
2016-10-22T03:53:30.448Z,157.50
2016-10-22T03:54:30.968Z,180.00
2016-10-22T03:55:31.477Z,180.00
2016-10-22T03:56:32.141Z,270.00
2016-10-22T03:57:32.515Z,202.50
2016-10-22T03:58:33.058Z,180.00
2016-10-22T03:59:33.569Z,202.50
2016-10-22T04:00:34.207Z,202.50
2016-10-22T04:01:34.727Z,225.00
2016-10-22T04:02:35.237Z,202.50
2016-10-22T04:03:35.605Z,180.00
2016-10-22T04:04:36.150Z,180.00
2016-10-22T04:05:36.645Z,180.00
2016-10-22T04:06:37.175Z,180.00
2016-10-22T04:07:37.667Z,180.00
2016-10-22T04:08:38.210Z,180.00
2016-10-22T04:09:38.691Z,180.00
2016-10-22T04:10:39.202Z,157.50
2016-10-22T04:11:39.867Z,180.00
2016-10-22T04:12:40.378Z,180.00
2016-10-22T04:13:40.781Z,180.00
2016-10-22T04:14:41.259Z,157.50
2016-10-22T04:15:41.774Z,180.00
2016-10-22T04:16:42.438Z,180.00
2016-10-22T04:17:42.841Z,180.00
2016-10-22T04:18:43.348Z,180.00
2016-10-22T04:19:43.857Z,180.00
2016-10-22T04:20:44.374Z,202.50
2016-10-22T04:21:44.859Z,180.00
2016-10-22T04:22:45.378Z,180.00
2016-10-22T04:23:45.888Z,202.50
2016-10-22T04:24:46.553Z,180.00
2016-10-22T04:25:46.915Z,202.50
2016-10-22T04:26:47.426Z,180.00
2016-10-22T04:27:47.965Z,180.00
2016-10-22T04:28:48.602Z,180.00
2016-10-22T04:29:49.123Z,202.50
2016-10-22T04:30:49.486Z,202.50
2016-10-22T04:31:50.002Z,180.00
2016-10-22T04:32:50.519Z,180.00
2016-10-22T04:33:51.070Z,180.00
2016-10-22T04:34:51.552Z,180.00
2016-10-22T04:35:52.061Z,180.00
2016-10-22T04:36:52.577Z,157.50
2016-10-22T04:37:53.118Z,180.00
2016-10-22T04:38:53.641Z,180.00
2016-10-22T04:39:54.128Z,180.00
2016-10-22T04:40:54.796Z,180.00
2016-10-22T04:41:55.203Z,180.00
2016-10-22T04:42:55.681Z,180.00
2016-10-22T04:43:56.201Z,202.50
2016-10-22T04:44:56.744Z,180.00
2016-10-22T04:45:57.384Z,225.00
2016-10-22T04:46:57.892Z,202.50
2016-10-22T04:47:58.262Z,247.50
2016-10-22T04:48:58.922Z,225.00
2016-10-22T04:49:59.287Z,202.50
2016-10-22T04:50:59.802Z,202.50
2016-10-22T04:52:00.319Z,202.50
2016-10-22T04:53:00.984Z,180.00
2016-10-22T04:54:01.346Z,180.00
2016-10-22T04:55:01.864Z,157.50
2016-10-22T04:56:02.409Z,180.00
2016-10-22T04:57:02.891Z,180.00
2016-10-22T04:58:03.404Z,180.00
2016-10-22T04:59:03.943Z,202.50
2016-10-22T05:00:04.430Z,157.50
2016-10-22T05:01:04.945Z,157.50
2016-10-22T05:02:05.464Z,157.50
2016-10-22T05:03:05.975Z,157.50
2016-10-22T05:04:06.637Z,180.00
2016-10-22T05:05:07.004Z,157.50
2016-10-22T05:06:07.519Z,135.00
2016-10-22T05:07:08.179Z,202.50
2016-10-22T05:08:08.549Z,202.50
2016-10-22T05:09:09.068Z,180.00
2016-10-22T05:10:09.606Z,225.00
2016-10-22T05:11:10.094Z,202.50
2016-10-22T05:12:10.603Z,270.00
2016-10-22T05:13:11.261Z,202.50
2016-10-22T05:14:11.628Z,180.00
2016-10-22T05:15:12.290Z,225.00
2016-10-22T05:16:12.685Z,157.50
2016-10-22T05:17:13.179Z,157.50
2016-10-22T05:18:13.707Z,157.50
2016-10-22T05:19:14.361Z,135.00
2016-10-22T05:20:14.880Z,157.50
2016-10-22T05:21:15.247Z,157.50
2016-10-22T05:22:15.762Z,202.50
2016-10-22T05:23:16.277Z,180.00
2016-10-22T05:24:16.798Z,157.50
2016-10-22T05:25:17.451Z,180.00
2016-10-22T05:26:17.846Z,157.50
2016-10-22T05:27:18.367Z,135.00
2016-10-22T05:28:18.848Z,202.50
2016-10-22T05:29:19.392Z,180.00
2016-10-22T05:30:19.898Z,157.50
2016-10-22T05:31:20.412Z,157.50
2016-10-22T05:32:20.901Z,202.50
2016-10-22T05:33:21.565Z,180.00
2016-10-22T05:34:21.955Z,157.50
2016-10-22T05:35:22.470Z,157.50
2016-10-22T05:36:22.994Z,180.00
2016-10-22T05:37:23.473Z,180.00
2016-10-22T05:38:23.985Z,157.50
2016-10-22T05:39:24.498Z,157.50
2016-10-22T05:40:25.039Z,180.00
2016-10-22T05:41:25.671Z,202.50
2016-10-22T05:42:26.043Z,202.50
2016-10-22T05:43:26.580Z,180.00
2016-10-22T05:44:27.219Z,202.50
2016-10-22T05:45:27.616Z,202.50
2016-10-22T05:46:28.121Z,292.50
2016-10-22T05:47:28.618Z,202.50
2016-10-22T05:48:29.127Z,202.50
2016-10-22T05:49:29.676Z,202.50
2016-10-22T05:50:30.186Z,202.50
2016-10-22T05:51:30.674Z,180.00
2016-10-22T05:52:31.227Z,180.00
2016-10-22T05:53:31.710Z,202.50
2016-10-22T05:54:32.251Z,180.00
2016-10-22T05:55:32.741Z,180.00
2016-10-22T05:56:33.292Z,180.00
2016-10-22T05:57:33.928Z,157.50
2016-10-22T05:58:34.327Z,157.50
2016-10-22T05:59:34.812Z,157.50
2016-10-22T06:00:35.326Z,180.00
2016-10-22T06:01:35.850Z,180.00
2016-10-22T06:02:36.393Z,180.00
2016-10-22T06:03:36.871Z,180.00
2016-10-22T06:04:37.387Z,202.50
2016-10-22T06:05:37.914Z,157.50
2016-10-22T06:06:38.561Z,202.50
2016-10-22T06:07:38.924Z,180.00
2016-10-22T06:08:39.448Z,180.00
2016-10-22T06:09:39.957Z,157.50
2016-10-22T06:10:40.469Z,180.00
2016-10-22T06:11:41.131Z,180.00
2016-10-22T06:12:41.524Z,157.50
2016-10-22T06:13:42.013Z,180.00
2016-10-22T06:14:42.530Z,337.50
2016-10-22T06:15:43.041Z,202.50
2016-10-22T06:16:43.560Z,180.00
2016-10-22T06:17:44.080Z,180.00
2016-10-22T06:18:44.593Z,180.00
2016-10-22T06:19:45.124Z,180.00
2016-10-22T06:20:45.649Z,180.00
2016-10-22T06:21:46.135Z,180.00
2016-10-22T06:22:46.650Z,180.00
2016-10-22T06:23:47.162Z,180.00
2016-10-22T06:24:47.703Z,180.00
2016-10-22T06:25:48.190Z,180.00
2016-10-22T06:26:48.705Z,180.00
2016-10-22T06:27:49.249Z,180.00
2016-10-22T06:28:49.761Z,180.00
2016-10-22T06:29:50.247Z,180.00
2016-10-22T06:30:50.799Z,180.00
2016-10-22T06:31:51.422Z,180.00
2016-10-22T06:32:51.826Z,157.50
2016-10-22T06:33:52.310Z,180.00
2016-10-22T06:34:52.862Z,180.00
2016-10-22T06:35:53.374Z,180.00
2016-10-22T06:36:53.860Z,202.50
2016-10-22T06:37:54.519Z,202.50
2016-10-22T06:38:54.924Z,180.00
2016-10-22T06:39:55.427Z,180.00
2016-10-22T06:40:55.923Z,180.00
2016-10-22T06:41:56.459Z,180.00
2016-10-22T06:42:56.982Z,180.00
2016-10-22T06:43:57.466Z,202.50
2016-10-22T06:44:58.019Z,202.50
2016-10-22T06:45:58.498Z,180.00
2016-10-22T06:46:59.036Z,180.00
2016-10-22T06:47:59.520Z,180.00
2016-10-22T06:49:00.036Z,180.00
2016-10-22T06:50:00.576Z,180.00
2016-10-22T06:51:01.070Z,157.50
2016-10-22T06:52:01.724Z,202.50
2016-10-22T06:53:02.112Z,202.50
2016-10-22T06:54:02.634Z,202.50
2016-10-22T06:55:03.157Z,202.50
2016-10-22T06:56:03.639Z,202.50
2016-10-22T06:57:04.181Z,202.50
2016-10-22T06:58:04.671Z,180.00
2016-10-22T06:59:05.214Z,157.50
2016-10-22T07:00:05.702Z,180.00
2016-10-22T07:01:06.244Z,202.50
2016-10-22T07:02:06.884Z,202.50
2016-10-22T07:03:07.252Z,180.00
2016-10-22T07:04:07.762Z,180.00
2016-10-22T07:05:08.305Z,180.00
2016-10-22T07:06:08.798Z,180.00
2016-10-22T07:07:09.346Z,157.50
2016-10-22T07:08:09.843Z,180.00
2016-10-22T07:09:10.372Z,180.00
2016-10-22T07:10:11.005Z,180.00
2016-10-22T07:11:11.372Z,180.00
2016-10-22T07:12:12.039Z,157.50
2016-10-22T07:13:12.415Z,157.50
2016-10-22T07:14:13.076Z,180.00
2016-10-22T07:15:13.483Z,180.00
2016-10-22T07:16:13.958Z,202.50
2016-10-22T07:17:14.512Z,180.00
2016-10-22T07:18:14.991Z,180.00
2016-10-22T07:19:15.508Z,180.00
2016-10-22T07:20:16.168Z,180.00
2016-10-22T07:21:16.684Z,157.50
2016-10-22T07:22:17.050Z,157.50
2016-10-22T07:23:17.596Z,180.00
2016-10-22T07:24:18.079Z,157.50
2016-10-22T07:25:18.626Z,180.00
2016-10-22T07:26:19.112Z,225.00
2016-10-22T07:27:19.655Z,202.50
2016-10-22T07:28:20.167Z,157.50
2016-10-22T07:29:20.692Z,180.00
2016-10-22T07:30:21.171Z,180.00
2016-10-22T07:31:21.708Z,180.00
2016-10-22T07:32:22.201Z,180.00
2016-10-22T07:33:22.718Z,180.00
2016-10-22T07:34:23.380Z,180.00
2016-10-22T07:35:23.775Z,225.00
2016-10-22T07:36:24.264Z,202.50
2016-10-22T07:37:24.774Z,202.50
2016-10-22T07:38:25.436Z,202.50
2016-10-22T07:39:25.820Z,225.00
2016-10-22T07:40:26.462Z,225.00
2016-10-22T07:41:26.825Z,225.00
2016-10-22T07:42:27.487Z,225.00
2016-10-22T07:43:27.888Z,202.50
2016-10-22T07:44:28.396Z,225.00
2016-10-22T07:45:28.877Z,180.00
2016-10-22T07:46:29.395Z,225.00
2016-10-22T07:47:29.931Z,225.00
2016-10-22T07:48:30.429Z,225.00
2016-10-22T07:49:30.939Z,225.00
2016-10-22T07:50:31.453Z,202.50
2016-10-22T07:51:31.971Z,202.50
2016-10-22T07:52:32.638Z,202.50
2016-10-22T07:53:33.030Z,247.50
2016-10-22T07:54:33.529Z,202.50
2016-10-22T07:55:34.069Z,180.00
2016-10-22T07:56:34.558Z,202.50
2016-10-22T07:57:35.225Z,202.50
2016-10-22T07:58:35.591Z,202.50
2016-10-22T07:59:36.106Z,180.00
2016-10-22T08:00:36.624Z,202.50
2016-10-22T08:01:37.140Z,225.00
2016-10-22T08:02:37.804Z,180.00
2016-10-22T08:03:38.175Z,202.50
2016-10-22T08:04:38.691Z,180.00
2016-10-22T08:05:39.200Z,202.50
2016-10-22T08:06:39.713Z,202.50
2016-10-22T08:07:40.228Z,225.00
2016-10-22T08:08:40.746Z,202.50
2016-10-22T08:09:41.289Z,225.00
2016-10-22T08:10:41.770Z,202.50
2016-10-22T08:11:42.309Z,202.50
2016-10-22T08:12:42.944Z,202.50
2016-10-22T08:13:43.309Z,180.00
2016-10-22T08:14:43.827Z,202.50
2016-10-22T08:15:44.338Z,180.00
2016-10-22T08:16:44.861Z,180.00
2016-10-22T08:17:45.368Z,247.50
2016-10-22T08:18:46.026Z,180.00
2016-10-22T08:19:46.424Z,180.00
2016-10-22T08:20:46.914Z,247.50
2016-10-22T08:21:47.428Z,247.50
2016-10-22T08:22:48.088Z,337.50
2016-10-22T08:23:48.477Z,337.50
2016-10-22T08:24:48.970Z,337.50
2016-10-22T08:25:49.485Z,337.50
2016-10-22T08:26:50.143Z,337.50
2016-10-22T08:27:50.547Z,337.50
2016-10-22T08:28:51.175Z,337.50
2016-10-22T08:29:51.578Z,337.50
2016-10-22T08:30:52.092Z,337.50
2016-10-22T08:31:52.621Z,337.50
2016-10-22T08:32:53.131Z,337.50
2016-10-22T08:33:53.655Z,337.50
2016-10-22T08:34:54.278Z,337.50
2016-10-22T08:35:54.670Z,337.50
2016-10-22T08:36:55.157Z,337.50
2016-10-22T08:37:55.686Z,337.50
2016-10-22T08:38:56.220Z,337.50
2016-10-22T08:39:56.853Z,337.50
2016-10-22T08:40:57.218Z,337.50
2016-10-22T08:41:57.760Z,337.50
2016-10-22T08:42:58.249Z,337.50
2016-10-22T08:43:58.765Z,337.50
2016-10-22T08:44:59.282Z,337.50
2016-10-22T08:45:59.819Z,337.50
2016-10-22T08:47:00.457Z,337.50
2016-10-22T08:48:00.823Z,337.50
2016-10-22T08:49:01.366Z,337.50
2016-10-22T08:50:01.853Z,337.50
2016-10-22T08:51:02.515Z,337.50
2016-10-22T08:52:02.884Z,337.50
2016-10-22T08:53:03.545Z,337.50
2016-10-22T08:54:03.947Z,337.50
2016-10-22T08:55:04.428Z,337.50
2016-10-22T08:56:04.940Z,337.50
2016-10-22T08:57:05.456Z,337.50
2016-10-22T08:58:05.967Z,337.50
2016-10-22T08:59:06.484Z,337.50
2016-10-22T09:00:07.026Z,337.50
2016-10-22T09:01:07.660Z,337.50
2016-10-22T09:02:08.326Z,337.50
2016-10-22T09:03:08.546Z,337.50
2016-10-22T09:04:09.088Z,337.50
2016-10-22T09:05:09.581Z,337.50
2016-10-22T09:06:10.114Z,337.50
2016-10-22T09:07:10.613Z,337.50
2016-10-22T09:08:11.131Z,337.50
2016-10-22T09:09:11.650Z,337.50
2016-10-22T09:10:12.166Z,337.50
2016-10-22T09:11:12.720Z,337.50
2016-10-22T09:12:13.238Z,337.50
2016-10-22T09:13:13.720Z,337.50
2016-10-22T09:14:14.256Z,337.50
2016-10-22T09:15:14.770Z,337.50
2016-10-22T09:16:15.287Z,337.50
2016-10-22T09:17:15.765Z,337.50
2016-10-22T09:18:16.281Z,337.50
2016-10-22T09:19:16.797Z,337.50
2016-10-22T09:20:17.340Z,337.50
2016-10-22T09:21:17.971Z,337.50
2016-10-22T09:22:18.371Z,337.50
2016-10-22T09:23:18.854Z,337.50
2016-10-22T09:24:19.382Z,337.50
2016-10-22T09:25:19.885Z,337.50
2016-10-22T09:26:20.428Z,337.50
2016-10-22T09:27:21.058Z,337.50
2016-10-22T09:28:21.459Z,337.50
2016-10-22T09:29:22.086Z,337.50
2016-10-22T09:30:22.458Z,337.50
2016-10-22T09:31:23.002Z,337.50
2016-10-22T09:32:23.484Z,337.50
2016-10-22T09:33:24.030Z,337.50
2016-10-22T09:34:24.517Z,337.50
2016-10-22T09:35:25.059Z,337.50
2016-10-22T09:36:25.566Z,337.50
2016-10-22T09:37:26.085Z,337.50
2016-10-22T09:38:26.567Z,337.50
2016-10-22T09:39:27.096Z,337.50
2016-10-22T09:40:27.600Z,337.50
2016-10-22T09:41:28.139Z,337.50
2016-10-22T09:42:28.634Z,337.50
2016-10-22T09:43:29.163Z,337.50
2016-10-22T09:44:29.650Z,337.50
2016-10-22T09:45:30.313Z,337.50
2016-10-22T09:46:30.710Z,337.50
2016-10-22T09:47:31.201Z,337.50
2016-10-22T09:48:31.745Z,337.50
2016-10-22T09:49:32.239Z,337.50
2016-10-22T09:50:32.780Z,337.50
2016-10-22T09:51:33.294Z,337.50
2016-10-22T09:52:33.808Z,337.50
2016-10-22T09:53:34.295Z,337.50
2016-10-22T09:54:34.813Z,337.50
2016-10-22T09:55:35.360Z,337.50
2016-10-22T09:56:35.871Z,337.50
2016-10-22T09:57:39.510Z,337.50
2016-10-22T09:58:37.022Z,337.50
2016-10-22T09:59:37.398Z,337.50
2016-10-22T10:00:37.902Z,337.50
2016-10-22T10:01:38.419Z,337.50
2016-10-22T10:02:38.953Z,337.50
2016-10-22T10:03:39.445Z,337.50
2016-10-22T10:04:39.985Z,337.50
2016-10-22T10:05:40.473Z,337.50
2016-10-22T10:06:40.990Z,337.50
2016-10-22T10:07:41.507Z,337.50
2016-10-22T10:08:42.020Z,337.50
2016-10-22T10:09:42.539Z,337.50
2016-10-22T10:10:43.075Z,337.50
2016-10-22T10:11:43.567Z,337.50
2016-10-22T10:12:44.231Z,337.50
2016-10-22T10:13:44.625Z,337.50
2016-10-22T10:14:45.114Z,337.50
2016-10-22T10:15:45.657Z,337.50
2016-10-22T10:16:46.292Z,337.50
2016-10-22T10:17:46.799Z,337.50
2016-10-22T10:18:47.166Z,337.50
2016-10-22T10:19:47.684Z,337.50
2016-10-22T10:20:48.196Z,337.50
2016-10-22T10:21:48.862Z,337.50
2016-10-22T10:22:49.226Z,337.50
2016-10-22T10:23:49.888Z,337.50
2016-10-22T10:24:50.281Z,337.50
2016-10-22T10:25:50.919Z,337.50
2016-10-22T10:26:51.286Z,337.50
2016-10-22T10:27:51.806Z,337.50
2016-10-22T10:28:52.323Z,337.50
2016-10-22T10:29:52.843Z,337.50
2016-10-22T10:30:53.504Z,337.50
2016-10-22T10:31:54.018Z,337.50
2016-10-22T10:32:54.417Z,337.50
2016-10-22T10:33:54.896Z,337.50
2016-10-22T10:34:55.438Z,337.50
2016-10-22T10:35:56.117Z,337.50
2016-10-22T10:36:56.477Z,337.50
2016-10-22T10:37:57.105Z,337.50
2016-10-22T10:38:57.467Z,337.50
2016-10-22T10:39:58.127Z,337.50
2016-10-22T10:40:58.521Z,337.50
2016-10-22T10:41:59.011Z,337.50
2016-10-22T10:42:59.670Z,337.50
2016-10-22T10:44:00.184Z,337.50
2016-10-22T10:45:00.551Z,337.50
2016-10-22T10:46:01.068Z,337.50
2016-10-22T10:47:01.617Z,337.50
2016-10-22T10:48:02.243Z,337.50
2016-10-22T10:49:02.648Z,337.50
2016-10-22T10:50:03.277Z,337.50
2016-10-22T10:51:03.645Z,337.50
2016-10-22T10:52:04.301Z,337.50
2016-10-22T10:53:04.669Z,337.50
2016-10-22T10:54:05.333Z,337.50
2016-10-22T10:55:05.720Z,337.50
2016-10-22T10:56:06.214Z,337.50
2016-10-22T10:57:06.729Z,337.50
2016-10-22T10:58:07.248Z,337.50
2016-10-22T10:59:07.790Z,337.50
2016-10-22T11:00:08.282Z,337.50
2016-10-22T11:01:08.947Z,337.50
2016-10-22T11:02:09.329Z,337.50
2016-10-22T11:03:09.830Z,337.50
2016-10-22T11:04:10.362Z,337.50
2016-10-22T11:05:10.878Z,337.50
2016-10-22T11:06:11.377Z,337.50
2016-10-22T11:07:11.896Z,337.50
2016-10-22T11:08:12.442Z,337.50
2016-10-22T11:09:12.926Z,337.50
2016-10-22T11:10:13.594Z,337.50
2016-10-22T11:11:13.962Z,337.50
2016-10-22T11:12:14.486Z,337.50
2016-10-22T11:13:15.021Z,337.50
2016-10-22T11:14:15.656Z,337.50
2016-10-22T11:15:16.021Z,337.50
2016-10-22T11:16:16.684Z,337.50
2016-10-22T11:17:17.086Z,337.50
2016-10-22T11:18:17.561Z,337.50
2016-10-22T11:19:18.099Z,337.50
2016-10-22T11:20:18.586Z,337.50
2016-10-22T11:21:19.246Z,337.50
2016-10-22T11:22:19.617Z,337.50
2016-10-22T11:23:20.157Z,337.50
2016-10-22T11:24:20.645Z,337.50
2016-10-22T11:25:21.186Z,337.50
2016-10-22T11:26:21.671Z,337.50
2016-10-22T11:27:22.187Z,337.50
2016-10-22T11:28:22.701Z,337.50
2016-10-22T11:29:23.238Z,337.50
2016-10-22T11:30:23.723Z,337.50
2016-10-22T11:31:24.243Z,337.50
2016-10-22T11:32:24.905Z,337.50
2016-10-22T11:33:25.272Z,337.50
2016-10-22T11:34:25.930Z,337.50
2016-10-22T11:35:26.321Z,337.50
2016-10-22T11:36:26.810Z,337.50
2016-10-22T11:37:27.364Z,337.50
2016-10-22T11:38:27.833Z,337.50
2016-10-22T11:39:28.497Z,337.50
2016-10-22T11:40:28.871Z,337.50
2016-10-22T11:41:29.378Z,337.50
2016-10-22T11:42:29.920Z,337.50
2016-10-22T11:43:30.441Z,337.50
2016-10-22T11:44:30.929Z,337.50
2016-10-22T11:45:31.447Z,337.50
2016-10-22T11:46:31.964Z,337.50
2016-10-22T11:47:32.512Z,337.50
2016-10-22T11:48:32.992Z,337.50
2016-10-22T11:49:33.506Z,337.50
2016-10-22T11:50:34.015Z,337.50
2016-10-22T11:51:34.559Z,337.50
2016-10-22T11:52:35.195Z,337.50
2016-10-22T11:53:35.561Z,337.50
2016-10-22T11:54:36.080Z,337.50
2016-10-22T11:55:36.617Z,337.50
2016-10-22T11:56:37.108Z,337.50
2016-10-22T11:57:37.620Z,337.50
2016-10-22T11:58:38.134Z,337.50
2016-10-22T11:59:38.649Z,337.50
2016-10-22T12:00:39.161Z,337.50
2016-10-22T12:01:39.825Z,337.50
2016-10-22T12:02:40.338Z,337.50
2016-10-22T12:03:40.736Z,337.50
2016-10-22T12:04:41.226Z,337.50
2016-10-22T12:05:41.733Z,337.50
2016-10-22T12:06:42.249Z,337.50
2016-10-22T12:07:42.764Z,337.50
2016-10-22T12:08:43.424Z,337.50
2016-10-22T12:09:43.821Z,337.50
2016-10-22T12:10:44.306Z,337.50
2016-10-22T12:11:44.855Z,337.50
2016-10-22T12:12:45.482Z,337.50
2016-10-22T12:13:45.848Z,337.50
2016-10-22T12:14:46.400Z,337.50
2016-10-22T12:15:47.030Z,337.50
2016-10-22T12:16:47.404Z,337.50
2016-10-22T12:17:47.945Z,337.50
2016-10-22T12:18:48.438Z,337.50
2016-10-22T12:19:48.973Z,337.50
2016-10-22T12:20:49.609Z,337.50
2016-10-22T12:21:50.005Z,337.50
2016-10-22T12:22:50.501Z,337.50
2016-10-22T12:23:51.019Z,337.50
2016-10-22T12:24:51.685Z,337.50
2016-10-22T12:25:52.047Z,337.50
2016-10-22T12:26:52.565Z,337.50
2016-10-22T12:27:53.097Z,337.50
2016-10-22T12:28:53.731Z,337.50
2016-10-22T12:29:54.120Z,337.50
2016-10-22T12:30:54.609Z,337.50
2016-10-22T12:31:55.128Z,337.50
2016-10-22T12:32:55.788Z,337.50
2016-10-22T12:33:56.183Z,337.50
2016-10-22T12:34:56.691Z,337.50